sensor_id;sensor_type;location;lat;lon;timestamp;pressure;altitude;pressure_sealevel;temperature;humidity
75188;BME280;63762;51.334;22.108;2023-11-19T00:08:00;102355.74;;;2.49;83.47
75188;BME280;63762;51.334;22.108;2023-11-19T00:18:08;102339.49;;;2.64;83.17
75188;BME280;63762;51.334;22.108;2023-11-19T00:28:15;102325.09;;;2.74;83.13
75188;BME280;63762;51.334;22.108;2023-11-19T00:38:22;102329.27;;;2.86;82.35
75188;BME280;63762;51.334;22.108;2023-11-19T00:48:29;102328.24;;;2.91;81.72
75188;BME280;63762;51.334;22.108;2023-11-19T00:58:36;102329.16;;;2.90;80.83
75188;BME280;63762;51.334;22.108;2023-11-19T01:08:43;102313.88;;;2.62;81.17
75188;BME280;63762;51.334;22.108;2023-11-19T01:18:51;102292.42;;;2.69;82.08
75188;BME280;63762;51.334;22.108;2023-11-19T01:28:57;102283.47;;;2.75;81.61
75188;BME280;63762;51.334;22.108;2023-11-19T01:39:05;102278.88;;;2.81;81.33
75188;BME280;63762;51.334;22.108;2023-11-19T01:49:14;102252.50;;;2.72;81.53
75188;BME280;63762;51.334;22.108;2023-11-19T01:59:19;102252.44;;;2.75;81.54
75188;BME280;63762;51.334;22.108;2023-11-19T02:09:27;102240.00;;;2.77;81.44
75188;BME280;63762;51.334;22.108;2023-11-19T02:19:34;102217.01;;;2.76;81.35
75188;BME280;63762;51.334;22.108;2023-11-19T02:29:40;102217.01;;;2.76;81.03
75188;BME280;63762;51.334;22.108;2023-11-19T02:39:47;102198.12;;;2.50;81.42
75188;BME280;63762;51.334;22.108;2023-11-19T02:49:55;102191.24;;;2.42;81.73
75188;BME280;63762;51.334;22.108;2023-11-19T03:00:02;102186.22;;;1.90;83.25
75188;BME280;63762;51.334;22.108;2023-11-19T03:10:13;102181.27;;;1.72;83.52
75188;BME280;63762;51.334;22.108;2023-11-19T03:20:17;102178.09;;;1.55;84.37
75188;BME280;63762;51.334;22.108;2023-11-19T03:30:23;102149.63;;;1.63;84.51
75188;BME280;63762;51.334;22.108;2023-11-19T03:40:30;102121.69;;;1.88;84.10
75188;BME280;63762;51.334;22.108;2023-11-19T03:50:37;102121.00;;;1.80;83.99
75188;BME280;63762;51.334;22.108;2023-11-19T04:00:45;102111.37;;;1.76;83.72
75188;BME280;63762;51.334;22.108;2023-11-19T04:10:52;102102.98;;;1.53;84.85
75188;BME280;63762;51.334;22.108;2023-11-19T04:20:59;102109.33;;;1.46;84.74
75188;BME280;63762;51.334;22.108;2023-11-19T04:31:06;102106.80;;;1.40;84.91
75188;BME280;63762;51.334;22.108;2023-11-19T04:41:13;102106.68;;;1.46;85.51
75188;BME280;63762;51.334;22.108;2023-11-19T04:51:20;102083.91;;;1.77;85.16
75188;BME280;63762;51.334;22.108;2023-11-19T05:01:27;102064.64;;;2.07;84.14
75188;BME280;63762;51.334;22.108;2023-11-19T05:11:35;102040.39;;;2.22;82.57
75188;BME280;63762;51.334;22.108;2023-11-19T05:21:43;102010.27;;;2.23;82.24
75188;BME280;63762;51.334;22.108;2023-11-19T05:31:49;102002.74;;;2.40;81.82
75188;BME280;63762;51.334;22.108;2023-11-19T05:41:56;101981.30;;;2.48;81.26
75188;BME280;63762;51.334;22.108;2023-11-19T05:52:03;101977.56;;;2.55;81.03
75188;BME280;63762;51.334;22.108;2023-11-19T06:02:10;101987.41;;;2.51;80.49
75188;BME280;63762;51.334;22.108;2023-11-19T06:12:17;101990.15;;;2.48;80.74
75188;BME280;63762;51.334;22.108;2023-11-19T06:22:25;101991.97;;;2.46;80.86
75188;BME280;63762;51.334;22.108;2023-11-19T06:32:32;101980.17;;;2.56;80.84
75188;BME280;63762;51.334;22.108;2023-11-19T06:42:39;101978.04;;;2.70;80.76
75188;BME280;63762;51.334;22.108;2023-11-19T06:52:46;101995.59;;;2.76;80.01
75188;BME280;63762;51.334;22.108;2023-11-19T07:02:53;101978.81;;;2.74;79.96
75188;BME280;63762;51.334;22.108;2023-11-19T07:13:00;101971.16;;;2.63;79.83
75188;BME280;63762;51.334;22.108;2023-11-19T07:23:07;101955.11;;;2.66;79.83
75188;BME280;63762;51.334;22.108;2023-11-19T07:33:15;101950.68;;;2.67;79.85
75188;BME280;63762;51.334;22.108;2023-11-19T07:43:22;101945.40;;;2.65;79.90
75188;BME280;63762;51.334;22.108;2023-11-19T07:53:29;101926.29;;;2.53;80.03
75188;BME280;63762;51.334;22.108;2023-11-19T08:03:36;101907.82;;;2.48;79.53
75188;BME280;63762;51.334;22.108;2023-11-19T08:13:43;101894.41;;;2.53;79.65
75188;BME280;63762;51.334;22.108;2023-11-19T08:23:51;101890.59;;;2.63;79.47
75188;BME280;63762;51.334;22.108;2023-11-19T08:33:57;101874.90;;;2.54;78.39
75188;BME280;63762;51.334;22.108;2023-11-19T08:44:05;101876.66;;;2.22;77.49
75188;BME280;63762;51.334;22.108;2023-11-19T08:54:12;101856.18;;;2.27;77.89
75188;BME280;63762;51.334;22.108;2023-11-19T09:04:19;101857.78;;;2.33;77.16
75188;BME280;63762;51.334;22.108;2023-11-19T09:14:26;101837.88;;;2.17;76.94
75188;BME280;63762;51.334;22.108;2023-11-19T09:24:33;101823.56;;;2.22;76.62
75188;BME280;63762;51.334;22.108;2023-11-19T09:34:40;101798.48;;;2.34;76.99
75188;BME280;63762;51.334;22.108;2023-11-19T09:44:48;101784.11;;;2.41;76.71
75188;BME280;63762;51.334;22.108;2023-11-19T09:54:54;101769.73;;;2.48;76.71
75188;BME280;63762;51.334;22.108;2023-11-19T10:05:05;101741.45;;;2.47;76.98
75188;BME280;63762;51.334;22.108;2023-11-19T10:15:17;101709.41;;;2.52;77.30
75188;BME280;63762;51.334;22.108;2023-11-19T10:25:27;101690.07;;;2.48;76.89
75188;BME280;63762;51.334;22.108;2023-11-19T10:35:28;101677.06;;;2.39;77.39
75188;BME280;63762;51.334;22.108;2023-11-19T10:45:30;101651.44;;;2.38;77.69
75188;BME280;63762;51.334;22.108;2023-11-19T10:55:38;101653.26;;;2.36;77.79
75188;BME280;63762;51.334;22.108;2023-11-19T11:05:48;101625.27;;;2.26;77.23
75188;BME280;63762;51.334;22.108;2023-11-19T11:15:52;101611.11;;;1.98;77.45
75188;BME280;63762;51.334;22.108;2023-11-19T11:36:22;101564.27;;;2.24;77.07
75188;BME280;63762;51.334;22.108;2023-11-19T11:56:38;101538.85;;;2.44;77.13
75188;BME280;63762;51.334;22.108;2023-11-19T12:06:39;101528.44;;;2.38;77.36
75188;BME280;63762;51.334;22.108;2023-11-19T12:16:40;101513.28;;;2.41;76.79
75188;BME280;63762;51.334;22.108;2023-11-19T12:29:49;101483.05;;;2.45;77.15
75188;BME280;63762;51.334;22.108;2023-11-19T12:39:55;101473.62;;;2.61;77.29
75188;BME280;63762;51.334;22.108;2023-11-19T12:50:02;101461.27;;;2.60;77.46
75188;BME280;63762;51.334;22.108;2023-11-19T13:00:21;101453.66;;;2.74;77.41
75188;BME280;63762;51.334;22.108;2023-11-19T13:10:22;101421.18;;;2.91;77.23
75188;BME280;63762;51.334;22.108;2023-11-19T13:20:23;101404.59;;;3.07;77.39
75188;BME280;63762;51.334;22.108;2023-11-19T13:30:31;101402.97;;;3.03;77.37
75188;BME280;63762;51.334;22.108;2023-11-19T13:40:38;101389.56;;;3.06;77.38
75188;BME280;63762;51.334;22.108;2023-11-19T13:50:45;101393.67;;;2.92;77.55
75188;BME280;63762;51.334;22.108;2023-11-19T14:00:52;101372.91;;;3.01;78.15
75188;BME280;63762;51.334;22.108;2023-11-19T14:10:59;101350.63;;;3.05;78.16
75188;BME280;63762;51.334;22.108;2023-11-19T14:21:06;101358.34;;;3.11;78.17
75188;BME280;63762;51.334;22.108;2023-11-19T14:31:14;101336.29;;;3.09;78.34
75188;BME280;63762;51.334;22.108;2023-11-19T14:41:21;101338.84;;;3.12;78.39
75188;BME280;63762;51.334;22.108;2023-11-19T14:51:28;101330.80;;;3.14;78.42
75188;BME280;63762;51.334;22.108;2023-11-19T15:01:35;101321.51;;;3.02;78.61
75188;BME280;63762;51.334;22.108;2023-11-19T15:11:45;101299.61;;;2.96;78.91
75188;BME280;63762;51.334;22.108;2023-11-19T15:21:49;101273.80;;;2.99;78.79
75188;BME280;63762;51.334;22.108;2023-11-19T15:31:56;101250.06;;;2.95;78.82
75188;BME280;63762;51.334;22.108;2023-11-19T15:42:04;101247.13;;;2.79;79.31
75188;BME280;63762;51.334;22.108;2023-11-19T15:52:10;101239.97;;;2.81;79.53
75188;BME280;63762;51.334;22.108;2023-11-19T16:02:18;101219.54;;;2.83;79.91
75188;BME280;63762;51.334;22.108;2023-11-19T16:12:25;101223.50;;;2.73;80.36
75188;BME280;63762;51.334;22.108;2023-11-19T16:22:32;101223.61;;;2.70;80.81
75188;BME280;63762;51.334;22.108;2023-11-19T16:42:55;101227.44;;;2.63;81.82
75188;BME280;63762;51.334;22.108;2023-11-19T16:52:58;101223.20;;;2.58;82.46
75188;BME280;63762;51.334;22.108;2023-11-19T17:03:04;101224.69;;;2.65;82.25
75188;BME280;63762;51.334;22.108;2023-11-19T17:13:08;101223.23;;;2.79;82.14
75188;BME280;63762;51.334;22.108;2023-11-19T17:23:15;101185.90;;;2.82;82.00
75188;BME280;63762;51.334;22.108;2023-11-19T17:33:22;101189.63;;;2.78;82.06
75188;BME280;63762;51.334;22.108;2023-11-19T17:43:29;101172.09;;;2.74;82.35
75188;BME280;63762;51.334;22.108;2023-11-19T17:53:36;101160.52;;;2.75;82.50
75188;BME280;63762;51.334;22.108;2023-11-19T18:03:43;101155.89;;;2.80;82.48
75188;BME280;63762;51.334;22.108;2023-11-19T18:13:50;101142.05;;;2.72;82.72
75188;BME280;63762;51.334;22.108;2023-11-19T18:23:58;101127.86;;;2.73;82.95
75188;BME280;63762;51.334;22.108;2023-11-19T18:34:05;101128.95;;;2.89;82.41
75188;BME280;63762;51.334;22.108;2023-11-19T18:44:12;101112.67;;;2.97;82.40
75188;BME280;63762;51.334;22.108;2023-11-19T18:54:19;101094.06;;;2.97;82.40
75188;BME280;63762;51.334;22.108;2023-11-19T19:04:26;101095.49;;;3.05;82.11
75188;BME280;63762;51.334;22.108;2023-11-19T19:14:33;101082.21;;;3.05;82.17
75188;BME280;63762;51.334;22.108;2023-11-19T19:24:40;101069.55;;;3.10;82.03
75188;BME280;63762;51.334;22.108;2023-11-19T19:34:48;101071.41;;;3.08;82.03
75188;BME280;63762;51.334;22.108;2023-11-19T19:44:55;101067.98;;;3.06;81.86
75188;BME280;63762;51.334;22.108;2023-11-19T19:55:02;101076.88;;;3.05;81.76
75188;BME280;63762;51.334;22.108;2023-11-19T20:05:09;101047.11;;;2.97;82.12
75188;BME280;63762;51.334;22.108;2023-11-19T20:15:16;101050.57;;;2.99;82.22
75188;BME280;63762;51.334;22.108;2023-11-19T20:25:23;101038.94;;;3.02;82.08
75188;BME280;63762;51.334;22.108;2023-11-19T20:35:31;101033.01;;;2.95;82.14
75188;BME280;63762;51.334;22.108;2023-11-19T20:45:38;101021.61;;;2.93;82.15
75188;BME280;63762;51.334;22.108;2023-11-19T20:55:45;101026.86;;;2.95;82.26
75188;BME280;63762;51.334;22.108;2023-11-19T21:05:52;101013.02;;;2.87;82.39
75188;BME280;63762;51.334;22.108;2023-11-19T21:16:02;101019.09;;;2.90;82.40
75188;BME280;63762;51.334;22.108;2023-11-19T21:26:06;101003.20;;;2.89;82.18
75188;BME280;63762;51.334;22.108;2023-11-19T21:36:14;100989.25;;;2.84;82.22
75188;BME280;63762;51.334;22.108;2023-11-19T21:46:20;100982.28;;;2.81;81.95
75188;BME280;63762;51.334;22.108;2023-11-19T21:56:27;100973.80;;;2.73;82.10
75188;BME280;63762;51.334;22.108;2023-11-19T22:06:35;100956.55;;;2.63;82.43
75188;BME280;63762;51.334;22.108;2023-11-19T22:16:42;100952.34;;;2.58;82.62
75188;BME280;63762;51.334;22.108;2023-11-19T22:26:49;100935.56;;;2.57;82.81
75188;BME280;63762;51.334;22.108;2023-11-19T22:36:56;100908.52;;;2.48;83.09
75188;BME280;63762;51.334;22.108;2023-11-19T22:47:04;100910.28;;;2.49;83.26
75188;BME280;63762;51.334;22.108;2023-11-19T22:57:10;100913.71;;;2.51;83.38
75188;BME280;63762;51.334;22.108;2023-11-19T23:07:17;100903.16;;;2.49;83.63
75188;BME280;63762;51.334;22.108;2023-11-19T23:17:25;100879.00;;;2.55;83.87
75188;BME280;63762;51.334;22.108;2023-11-19T23:27:33;100865.59;;;2.58;83.94
75188;BME280;63762;51.334;22.108;2023-11-19T23:37:39;100877.20;;;2.56;84.35
75188;BME280;63762;51.334;22.108;2023-11-19T23:47:46;100861.07;;;2.60;84.59
75188;BME280;63762;51.334;22.108;2023-11-19T23:57:53;100870.42;;;2.69;84.37
